NUE weather

Nuremberg Airport
Nuremberg, Bavaria, Germany

Public forecast

Using degrees Celsius for public forecast. Weather courtesy of forecast.io.

Current aviation weather report (METAR) for Nuremberg Airport

Retrieved 2019/12/06 10:20 UTC (0 seconds ago):

EDDN 061020Z 15008KT CAVOK 01/M02 Q1019 NOSIG

Aviation forecast (TAF) for Nuremberg Airport

Retrieved 2019/12/06 06:27 UTC (4 hours ago):

TAF EDDN 060500Z 0606/0706 15008KT 8000 OVC003 TEMPO 0606/0608 2500 BR BECMG 0607/0609 SCT006 BECMG 0700/0702 22010KT